createdAt,value
2024-01-09T00:00:05.765Z,-6.50
2024-01-09T00:03:04.233Z,-6.50
2024-01-09T00:06:02.032Z,-6.50
2024-01-09T00:09:00.098Z,-6.50
2024-01-09T00:11:57.633Z,-6.50
2024-01-09T00:14:55.423Z,-6.50
2024-01-09T00:17:52.965Z,-6.60
2024-01-09T00:20:50.906Z,-6.60
2024-01-09T00:23:48.489Z,-6.60
2024-01-09T00:26:46.141Z,-6.60
2024-01-09T00:29:43.643Z,-6.70
2024-01-09T00:32:41.337Z,-6.70
2024-01-09T00:35:39.095Z,-6.70
2024-01-09T00:38:36.588Z,-6.70
2024-01-09T00:41:34.446Z,-6.70
2024-01-09T00:44:32.386Z,-6.70
2024-01-09T00:47:31.503Z,-6.70
2024-01-09T00:50:29.344Z,-6.70
2024-01-09T00:53:26.764Z,-6.70
2024-01-09T00:56:24.650Z,-6.70
2024-01-09T00:59:22.271Z,-6.70
2024-01-09T01:02:20.002Z,-6.80
2024-01-09T01:05:17.981Z,-6.80
2024-01-09T01:08:16.158Z,-6.80
2024-01-09T01:11:13.577Z,-6.80
2024-01-09T01:14:11.356Z,-6.80
2024-01-09T01:17:08.803Z,-6.80
2024-01-09T01:20:06.462Z,-6.80
2024-01-09T01:23:03.933Z,-6.86
2024-01-09T01:26:01.697Z,-6.88
2024-01-09T01:28:59.146Z,-6.90
2024-01-09T01:31:56.833Z,-6.90
2024-01-09T01:34:54.207Z,-6.94
2024-01-09T01:37:53.079Z,-7.00
2024-01-09T01:40:50.519Z,-7.00
2024-01-09T01:43:48.193Z,-7.00
2024-01-09T01:46:45.631Z,-7.10
2024-01-09T01:49:43.324Z,-7.10
2024-01-09T01:52:40.730Z,-7.10
2024-01-09T01:55:39.038Z,-7.20
2024-01-09T01:58:36.712Z,-7.20
2024-01-09T02:01:34.384Z,-7.20
2024-01-09T02:04:31.838Z,-7.20
2024-01-09T02:07:29.518Z,-7.26
2024-01-09T02:10:26.907Z,-7.30
2024-01-09T02:13:24.683Z,-7.30
2024-01-09T02:16:22.199Z,-7.30
2024-01-09T02:19:20.007Z,-7.30
2024-01-09T02:22:17.543Z,-7.30
2024-01-09T02:25:15.294Z,-7.30
2024-01-09T02:28:12.748Z,-7.30
2024-01-09T02:31:10.896Z,-7.38
2024-01-09T02:34:09.773Z,-7.38
2024-01-09T02:37:08.829Z,-7.40
2024-01-09T02:40:06.271Z,-7.40
2024-01-09T02:43:03.998Z,-7.40
2024-01-09T02:46:01.414Z,-7.40
2024-01-09T02:48:59.272Z,-7.40
2024-01-09T02:51:56.825Z,-7.50
2024-01-09T02:54:54.608Z,-7.50
2024-01-09T02:57:52.041Z,-7.58
2024-01-09T03:00:49.772Z,-7.60
2024-01-09T03:03:47.378Z,-7.60
2024-01-09T03:06:45.262Z,-7.60
2024-01-09T03:09:44.720Z,-7.60
2024-01-09T03:12:42.437Z,-7.66
2024-01-09T03:15:40.009Z,-7.66
2024-01-09T03:18:37.751Z,-7.70
2024-01-09T03:21:35.463Z,-7.70
2024-01-09T03:24:33.089Z,-7.70
2024-01-09T03:27:30.479Z,-7.70
2024-01-09T03:30:31.200Z,-7.70
2024-01-09T03:33:29.556Z,-7.70
2024-01-09T03:36:28.108Z,-7.70
2024-01-09T03:39:25.506Z,-7.70
2024-01-09T03:42:23.098Z,-7.70
2024-01-09T03:45:20.487Z,-7.72
2024-01-09T03:48:18.226Z,-7.70
2024-01-09T03:51:16.073Z,-7.70
2024-01-09T03:54:13.490Z,-7.70
2024-01-09T03:57:11.940Z,-7.70
2024-01-09T04:00:09.336Z,-7.72
2024-01-09T04:03:06.907Z,-7.70
2024-01-09T04:06:04.413Z,-7.78
2024-01-09T04:09:02.165Z,-7.80
2024-01-09T04:11:59.601Z,-7.80
2024-01-09T04:14:57.391Z,-7.80
2024-01-09T04:17:55.315Z,-7.80
2024-01-09T04:20:52.915Z,-7.84
2024-01-09T04:23:51.313Z,-7.90
2024-01-09T04:26:49.017Z,-7.90
2024-01-09T04:29:46.770Z,-7.90
2024-01-09T04:32:44.421Z,-7.90
2024-01-09T04:35:42.224Z,-7.92
2024-01-09T04:38:39.980Z,-8.00
2024-01-09T04:41:37.530Z,-7.98
2024-01-09T04:44:35.286Z,-8.00
2024-01-09T04:47:33.003Z,-8.00
2024-01-09T04:50:30.957Z,-8.00
2024-01-09T04:53:28.434Z,-8.02
2024-01-09T04:56:26.234Z,-8.02
2024-01-09T04:59:23.724Z,-8.04
2024-01-09T05:02:21.501Z,-8.08
2024-01-09T05:05:19.124Z,-8.08
2024-01-09T05:08:17.337Z,-8.10
2024-01-09T05:11:18.740Z,-8.10
2024-01-09T05:14:17.431Z,-8.10
2024-01-09T05:17:15.369Z,-8.18
2024-01-09T05:20:12.871Z,-8.20
2024-01-09T05:23:10.582Z,-8.18
2024-01-09T05:26:08.003Z,-8.20
2024-01-09T05:29:05.769Z,-8.20
2024-01-09T05:32:03.431Z,-8.20
2024-01-09T05:35:02.935Z,-8.20
2024-01-09T05:38:07.982Z,-8.20
2024-01-09T05:41:12.762Z,-8.30
2024-01-09T05:44:10.303Z,-8.30
2024-01-09T05:47:08.152Z,-8.30
2024-01-09T05:50:05.756Z,-8.30
2024-01-09T05:53:04.229Z,-8.40
2024-01-09T05:56:01.599Z,-8.40
2024-01-09T05:58:59.316Z,-8.40
2024-01-09T06:01:56.750Z,-8.40
2024-01-09T06:04:54.418Z,-8.40
2024-01-09T06:07:51.807Z,-8.40
2024-01-09T06:10:49.437Z,-8.40
2024-01-09T06:13:46.810Z,-8.40
2024-01-09T06:16:44.395Z,-8.38
2024-01-09T06:19:41.814Z,-8.30
2024-01-09T06:22:39.612Z,-8.30
2024-01-09T06:25:37.181Z,-8.40
2024-01-09T06:28:35.048Z,-8.40
2024-01-09T06:31:32.599Z,-8.40
2024-01-09T06:34:30.398Z,-8.40
2024-01-09T06:37:28.158Z,-8.40
2024-01-09T06:40:26.019Z,-8.40
2024-01-09T06:43:23.796Z,-8.50
2024-01-09T06:46:21.182Z,-8.50
2024-01-09T06:49:18.936Z,-8.50
2024-01-09T06:52:16.360Z,-8.50
2024-01-09T06:55:14.026Z,-8.48
2024-01-09T06:58:13.481Z,-8.46
2024-01-09T07:01:13.907Z,-8.48
2024-01-09T07:04:12.342Z,-8.50
2024-01-09T07:07:12.921Z,-8.50
2024-01-09T07:10:10.942Z,-8.46
2024-01-09T07:13:08.597Z,-8.40
2024-01-09T07:16:06.317Z,-8.40
2024-01-09T07:19:04.635Z,-8.40
2024-01-09T07:22:02.443Z,-8.30
2024-01-09T07:24:59.835Z,-8.30
2024-01-09T07:27:57.455Z,-8.30
2024-01-09T07:30:55.926Z,-8.30
2024-01-09T07:33:53.703Z,-8.30
2024-01-09T07:36:51.566Z,-8.28
2024-01-09T07:39:49.750Z,-8.28
2024-01-09T07:42:53.632Z,-8.20
2024-01-09T07:45:57.565Z,-8.20
2024-01-09T07:48:55.738Z,-8.14
2024-01-09T07:51:53.183Z,-8.10
2024-01-09T07:54:50.883Z,-8.10
2024-01-09T07:57:49.059Z,-8.00
2024-01-09T08:00:46.719Z,-8.00
2024-01-09T08:03:44.435Z,-8.00
2024-01-09T08:06:42.198Z,-8.00
2024-01-09T08:09:39.578Z,-7.92
2024-01-09T08:12:37.278Z,-7.90
2024-01-09T08:15:35.136Z,-7.90
2024-01-09T08:18:34.583Z,-7.80
2024-01-09T08:21:32.629Z,-7.80
2024-01-09T08:24:30.313Z,-7.80
2024-01-09T08:27:27.863Z,-7.70
2024-01-09T08:30:25.557Z,-7.70
2024-01-09T08:33:26.099Z,-7.70
2024-01-09T08:36:25.308Z,-7.60
2024-01-09T08:39:22.798Z,-7.50
2024-01-09T08:42:20.495Z,-7.38
2024-01-09T08:45:18.140Z,-7.20
2024-01-09T08:48:16.054Z,-7.00
2024-01-09T08:51:16.385Z,-6.80
2024-01-09T08:54:17.596Z,-6.70
2024-01-09T08:57:15.257Z,-6.50
2024-01-09T09:00:12.998Z,-6.40
2024-01-09T09:03:10.717Z,-6.30
2024-01-09T09:06:08.805Z,-6.20
2024-01-09T09:09:06.445Z,-6.06
2024-01-09T09:12:05.082Z,-6.00
2024-01-09T09:15:02.854Z,-5.90
2024-01-09T09:18:00.891Z,-5.88
2024-01-09T09:20:58.569Z,-5.72
2024-01-09T09:23:56.274Z,-5.62
2024-01-09T09:26:54.422Z,-5.50
2024-01-09T09:29:53.995Z,-5.40
2024-01-09T09:32:52.161Z,-5.40
2024-01-09T09:35:50.046Z,-5.48
2024-01-09T09:38:47.591Z,-5.50
2024-01-09T09:41:46.339Z,-5.60
2024-01-09T09:44:44.172Z,-5.60
2024-01-09T09:47:41.806Z,-5.64
2024-01-09T09:50:39.909Z,-5.60
2024-01-09T09:53:37.484Z,-5.60
2024-01-09T09:56:35.380Z,-5.60
2024-01-09T09:59:32.849Z,-5.60
2024-01-09T10:02:30.809Z,-5.60
2024-01-09T10:05:28.766Z,-5.60
2024-01-09T10:08:26.822Z,-5.50
2024-01-09T10:11:24.687Z,-5.50
2024-01-09T10:14:22.655Z,-5.40
2024-01-09T10:17:20.257Z,-5.32
2024-01-09T10:20:18.584Z,-5.30
2024-01-09T10:23:16.261Z,-5.20
2024-01-09T10:26:14.302Z,-5.10
2024-01-09T10:29:11.742Z,-4.90
2024-01-09T10:32:09.540Z,-4.70
2024-01-09T10:35:08.361Z,-4.50
2024-01-09T10:38:06.206Z,-4.30
2024-01-09T10:41:03.609Z,-4.30
2024-01-09T10:44:01.435Z,-4.10
2024-01-09T10:46:59.615Z,-3.90
2024-01-09T10:49:57.528Z,-3.90
2024-01-09T10:52:56.327Z,-3.80
2024-01-09T10:55:54.255Z,-3.70
2024-01-09T10:58:51.676Z,-3.60
2024-01-09T11:01:49.124Z,-3.50
2024-01-09T11:04:47.246Z,-3.50
2024-01-09T11:07:45.844Z,-3.40
2024-01-09T11:10:44.817Z,-3.30
2024-01-09T11:13:42.303Z,-3.30
2024-01-09T11:16:39.768Z,-3.30
2024-01-09T11:19:37.649Z,-3.10
2024-01-09T11:22:35.741Z,-2.98
2024-01-09T11:25:35.714Z,-2.80
2024-01-09T11:28:33.565Z,-2.70
2024-01-09T11:31:32.361Z,-2.60
2024-01-09T11:34:30.852Z,-2.50
2024-01-09T11:37:28.734Z,-2.30
2024-01-09T11:40:26.163Z,-2.10
2024-01-09T11:43:23.937Z,-2.00
2024-01-09T11:46:21.400Z,-1.90
2024-01-09T11:49:19.509Z,-1.80
2024-01-09T11:52:17.310Z,-1.80
2024-01-09T11:55:15.230Z,-1.80
2024-01-09T11:58:13.169Z,-1.80
2024-01-09T12:01:10.746Z,-1.70
2024-01-09T12:04:08.783Z,-1.80
2024-01-09T12:07:06.676Z,-1.80
2024-01-09T12:10:12.502Z,-1.80
2024-01-09T12:13:18.281Z,-1.80
2024-01-09T12:16:16.080Z,-1.70
2024-01-09T12:19:13.626Z,-1.80
2024-01-09T12:22:11.699Z,-1.82
2024-01-09T12:25:10.946Z,-1.90
2024-01-09T12:28:08.830Z,-2.00
2024-01-09T12:31:06.247Z,-2.00
2024-01-09T12:34:05.063Z,-2.00
2024-01-09T12:37:06.638Z,-2.00
2024-01-09T12:40:10.685Z,-2.00
2024-01-09T12:43:08.510Z,-2.00
2024-01-09T12:46:06.019Z,-1.90
2024-01-09T12:49:04.084Z,-1.90
2024-01-09T12:52:01.751Z,-1.90
2024-01-09T12:55:04.446Z,-1.98
2024-01-09T12:58:02.944Z,-2.00
2024-01-09T13:01:00.955Z,-2.02
2024-01-09T13:03:58.524Z,-2.02
2024-01-09T13:06:56.521Z,-2.10
2024-01-09T13:09:53.980Z,-2.10
2024-01-09T13:12:51.775Z,-2.10
2024-01-09T13:15:50.568Z,-2.10
2024-01-09T13:18:48.182Z,-2.10
2024-01-09T13:24:46.133Z,-2.30
2024-01-09T13:27:46.268Z,-2.30
2024-01-09T13:30:50.185Z,-2.40
2024-01-09T13:33:50.210Z,-2.50
2024-01-09T13:36:49.273Z,-2.60
2024-01-09T13:39:47.436Z,-2.70
2024-01-09T13:42:45.318Z,-2.90
2024-01-09T13:45:43.717Z,-3.00
2024-01-09T13:48:41.922Z,-3.12
2024-01-09T13:51:51.503Z,-3.20
2024-01-09T13:54:52.678Z,-3.30
2024-01-09T13:57:50.174Z,-3.32
2024-01-09T14:00:48.341Z,-3.36
2024-01-09T14:03:45.979Z,-3.32
2024-01-09T14:06:43.946Z,-3.30
2024-01-09T14:09:41.340Z,-3.22
2024-01-09T14:12:39.268Z,-3.20
2024-01-09T14:15:36.652Z,-3.20
2024-01-09T14:18:36.736Z,-3.20
2024-01-09T14:21:35.213Z,-3.20
2024-01-09T14:24:33.115Z,-3.20
2024-01-09T14:27:30.619Z,-3.20
2024-01-09T14:30:28.524Z,-3.22
2024-01-09T14:33:26.146Z,-3.22
2024-01-09T14:36:24.259Z,-3.20
2024-01-09T14:39:21.764Z,-3.20
2024-01-09T14:42:19.919Z,-3.20
2024-01-09T14:45:18.668Z,-3.28
2024-01-09T14:48:16.503Z,-3.30
2024-01-09T14:51:15.488Z,-3.28
2024-01-09T14:54:14.005Z,-3.30
2024-01-09T14:57:11.444Z,-3.30
2024-01-09T15:00:11.857Z,-3.30
2024-01-09T15:03:09.299Z,-3.40
2024-01-09T15:06:07.341Z,-3.48
2024-01-09T15:09:05.182Z,-3.50
2024-01-09T15:12:03.124Z,-3.50
2024-01-09T15:15:00.976Z,-3.50
2024-01-09T15:17:59.072Z,-3.50
2024-01-09T15:20:56.937Z,-3.50
2024-01-09T15:23:54.437Z,-3.60
2024-01-09T15:26:52.470Z,-3.60
2024-01-09T15:29:51.069Z,-3.64
2024-01-09T15:32:49.023Z,-3.70
2024-01-09T15:35:48.235Z,-3.70
2024-01-09T15:38:45.988Z,-3.70
2024-01-09T15:41:43.390Z,-3.78
2024-01-09T15:44:41.349Z,-3.80
2024-01-09T15:47:41.573Z,-3.90
2024-01-09T15:50:40.465Z,-3.90
2024-01-09T15:53:37.840Z,-3.94
2024-01-09T15:56:35.690Z,-4.00
2024-01-09T15:59:33.089Z,-4.00
2024-01-09T16:02:31.054Z,-4.10
2024-01-09T16:05:29.595Z,-4.10
2024-01-09T16:08:27.576Z,-4.10
2024-01-09T16:11:24.971Z,-4.10
2024-01-09T16:14:23.002Z,-4.10
2024-01-09T16:17:20.557Z,-4.08
2024-01-09T16:20:18.486Z,-4.00
2024-01-09T16:23:15.982Z,-4.00
2024-01-09T16:26:15.532Z,-4.00
2024-01-09T16:29:13.571Z,-3.94
2024-01-09T16:32:11.761Z,-3.90
2024-01-09T16:35:09.358Z,-3.90
2024-01-09T16:38:07.434Z,-3.90
2024-01-09T16:41:05.248Z,-3.90
2024-01-09T16:44:04.101Z,-4.00
2024-01-09T16:47:02.317Z,-4.00
2024-01-09T16:50:00.698Z,-4.10
2024-01-09T16:52:58.256Z,-4.20
2024-01-09T16:55:56.746Z,-4.20
2024-01-09T16:58:54.799Z,-4.30
2024-01-09T17:01:52.860Z,-4.30
2024-01-09T17:04:50.436Z,-4.40
2024-01-09T17:07:48.421Z,-4.40
2024-01-09T17:10:46.667Z,-4.50
2024-01-09T17:13:44.745Z,-4.52
2024-01-09T17:16:42.319Z,-4.60
2024-01-09T17:19:40.297Z,-4.70
2024-01-09T17:22:39.389Z,-4.70
2024-01-09T17:25:37.783Z,-4.80
2024-01-09T17:28:35.223Z,-4.80
2024-01-09T17:31:33.897Z,-4.90
2024-01-09T17:34:31.357Z,-4.92
2024-01-09T17:37:29.230Z,-5.00
2024-01-09T17:40:26.676Z,-5.12
2024-01-09T17:43:24.490Z,-5.20
2024-01-09T17:46:22.933Z,-5.30
2024-01-09T17:49:21.279Z,-5.38
2024-01-09T17:52:18.730Z,-5.40
2024-01-09T17:55:16.688Z,-5.44
2024-01-09T17:58:14.069Z,-5.50
2024-01-09T18:01:15.416Z,-5.60
2024-01-09T18:04:18.282Z,-5.70
2024-01-09T18:07:16.185Z,-5.70
2024-01-09T18:10:13.774Z,-5.78
2024-01-09T18:13:12.131Z,-5.80
2024-01-09T18:16:09.835Z,-5.88
2024-01-09T18:19:07.306Z,-5.90
2024-01-09T18:22:04.890Z,-6.00
2024-01-09T18:25:02.584Z,-6.10
2024-01-09T18:28:03.997Z,-6.10
2024-01-09T18:31:01.425Z,-6.20
2024-01-09T18:33:59.018Z,-6.20
2024-01-09T18:36:56.434Z,-6.28
2024-01-09T18:39:54.700Z,-6.30
2024-01-09T18:42:52.556Z,-6.30
2024-01-09T18:45:50.232Z,-6.30
2024-01-09T18:48:47.649Z,-6.30
2024-01-09T18:51:45.670Z,-6.30
2024-01-09T18:54:43.154Z,-6.30
2024-01-09T18:57:40.995Z,-6.30
2024-01-09T19:00:38.400Z,-6.30
2024-01-09T19:03:36.195Z,-6.32
2024-01-09T19:06:33.641Z,-6.40
2024-01-09T19:09:31.480Z,-6.40
2024-01-09T19:12:29.266Z,-6.42
2024-01-09T19:15:27.021Z,-6.50
2024-01-09T19:18:24.545Z,-6.50
2024-01-09T19:21:22.304Z,-6.56
2024-01-09T19:24:20.046Z,-6.60
2024-01-09T19:27:18.053Z,-6.60
2024-01-09T19:30:15.620Z,-6.60
2024-01-09T19:33:13.956Z,-6.64
2024-01-09T19:36:14.819Z,-6.70
2024-01-09T19:39:13.014Z,-6.80
2024-01-09T19:42:11.322Z,-6.80
2024-01-09T19:45:09.763Z,-6.80
2024-01-09T19:48:07.484Z,-6.80
2024-01-09T19:51:04.952Z,-6.80
2024-01-09T19:54:02.967Z,-6.80
2024-01-09T19:57:00.647Z,-6.80
2024-01-09T19:59:58.223Z,-6.80
2024-01-09T20:02:56.080Z,-6.84
2024-01-09T20:05:53.663Z,-6.84
2024-01-09T20:08:51.389Z,-6.80
2024-01-09T20:11:48.817Z,-6.80
2024-01-09T20:14:46.728Z,-6.80
2024-01-09T20:17:44.714Z,-6.70
2024-01-09T20:20:42.801Z,-6.70
2024-01-09T20:23:40.400Z,-6.80
2024-01-09T20:26:37.820Z,-6.72
2024-01-09T20:29:36.462Z,-6.70
2024-01-09T20:32:34.009Z,-6.60
2024-01-09T20:35:31.705Z,-6.60
2024-01-09T20:38:31.338Z,-6.60
2024-01-09T20:41:31.529Z,-6.50
2024-01-09T20:44:29.649Z,-6.40
2024-01-09T20:47:27.336Z,-6.40
2024-01-09T20:50:25.346Z,-6.30
2024-01-09T20:53:22.903Z,-6.30
2024-01-09T20:56:20.636Z,-6.30
2024-01-09T20:59:18.725Z,-6.20
2024-01-09T21:02:19.952Z,-6.30
2024-01-09T21:05:17.480Z,-6.30
2024-01-09T21:08:15.677Z,-6.30
2024-01-09T21:11:13.444Z,-6.30
2024-01-09T21:14:11.518Z,-6.30
2024-01-09T21:17:09.655Z,-6.34
2024-01-09T21:20:07.552Z,-6.34
2024-01-09T21:23:05.295Z,-6.40
2024-01-09T21:26:03.211Z,-6.28
2024-01-09T21:29:01.606Z,-6.20
2024-01-09T21:31:59.589Z,-6.30
2024-01-09T21:34:57.574Z,-6.30
2024-01-09T21:37:55.409Z,-6.30
2024-01-09T21:40:58.984Z,-6.30
2024-01-09T21:43:57.790Z,-6.20
2024-01-09T21:46:55.269Z,-6.20
2024-01-09T21:49:52.919Z,-6.20
2024-01-09T21:52:50.402Z,-6.20
2024-01-09T21:55:48.046Z,-6.20
2024-01-09T21:58:45.497Z,-6.20
2024-01-09T22:01:43.280Z,-6.30
2024-01-09T22:04:40.744Z,-6.20
2024-01-09T22:07:38.468Z,-6.22
2024-01-09T22:10:36.310Z,-6.20
2024-01-09T22:13:33.791Z,-6.24
2024-01-09T22:16:31.664Z,-6.26
2024-01-09T22:19:29.112Z,-6.24
2024-01-09T22:22:26.906Z,-6.20
2024-01-09T22:25:24.303Z,-6.20
2024-01-09T22:28:22.040Z,-6.20
2024-01-09T22:31:19.918Z,-6.28
2024-01-09T22:34:17.809Z,-6.30
2024-01-09T22:37:15.218Z,-6.30
2024-01-09T22:40:12.806Z,-6.30
2024-01-09T22:43:10.244Z,-6.30
2024-01-09T22:46:07.913Z,-6.30
2024-01-09T22:49:06.527Z,-6.40
2024-01-09T22:52:04.380Z,-6.40
2024-01-09T22:55:02.041Z,-6.36
2024-01-09T22:57:59.453Z,-6.38
2024-01-09T23:00:59.442Z,-6.30
2024-01-09T23:03:56.867Z,-6.40
2024-01-09T23:06:54.521Z,-6.50
2024-01-09T23:09:52.209Z,-6.60
2024-01-09T23:12:50.221Z,-6.50
2024-01-09T23:15:47.890Z,-6.54
2024-01-09T23:18:45.621Z,-6.60
2024-01-09T23:21:43.083Z,-6.60
2024-01-09T23:24:40.659Z,-6.60
2024-01-09T23:27:38.034Z,-6.60
2024-01-09T23:30:35.724Z,-6.62
2024-01-09T23:33:33.497Z,-6.60
2024-01-09T23:36:31.290Z,-6.68
2024-01-09T23:39:29.056Z,-6.70
2024-01-09T23:42:26.446Z,-6.70
2024-01-09T23:45:24.053Z,-6.70
2024-01-09T23:48:21.583Z,-6.70
2024-01-09T23:51:19.258Z,-6.80
2024-01-09T23:54:17.492Z,-6.80
2024-01-09T23:57:15.379Z,-6.80
